Time;durP1;ratioP1;P1;durP2;ratioP2;P2;SDS_P1;SDS_P2;PMS_P1;PMS_P2;Temp;Humidity;BMP_temperature;BMP_pressure;BME280_temperature;BME280_humidity;BME280_pressure;Samples;Min_cycle;Max_cycle;Signal;HPM_P1;HPM_P2
2021/10/05 00:01:03;;;;;;;5.93;5.30;;;;;;;;;;5076372;28;20224;-61
2021/10/05 00:03:29;;;;;;;6.50;5.20;;;;;;;;;;5076035;28;20574;-61
2021/10/05 00:05:54;;;;;;;6.10;5.00;;;;;;;;;;5076311;28;20216;-61
2021/10/05 00:08:19;;;;;;;5.90;5.17;;;;;;;;;;5075727;28;20259;-61
2021/10/05 00:10:45;;;;;;;6.40;5.80;;;;;;;;;;5075964;28;20237;-60
2021/10/05 00:13:10;;;;;;;5.77;5.17;;;;;;;;;;5075170;28;20306;-61
2021/10/05 00:15:35;;;;;;;5.50;5.00;;;;;;;;;;5075670;28;20656;-62
2021/10/05 00:18:01;;;;;;;7.80;5.90;;;;;;;;;;5076114;28;20274;-60
2021/10/05 00:20:26;;;;;;;11.53;5.73;;;;;;;;;;5075570;28;20254;-60
2021/10/05 00:22:51;;;;;;;7.60;6.30;;;;;;;;;;5076067;28;20592;-61
2021/10/05 00:25:17;;;;;;;7.50;6.60;;;;;;;;;;5075420;28;20224;-61
2021/10/05 00:27:42;;;;;;;10.00;6.00;;;;;;;;;;5075870;28;20299;-60
2021/10/05 00:30:08;;;;;;;7.47;6.37;;;;;;;;;;5075923;28;20224;-60
2021/10/05 00:32:33;;;;;;;6.90;6.27;;;;;;;;;;5075324;28;20656;-61
2021/10/05 00:34:59;;;;;;;7.07;6.37;;;;;;;;;;5075725;28;20562;-61
2021/10/05 00:37:24;;;;;;;7.87;5.77;;;;;;;;;;5075349;28;20226;-60
2021/10/05 00:39:50;;;;;;;5.43;4.93;;;;;;;;;;5075435;28;20566;-60
2021/10/05 00:42:15;;;;;;;8.17;5.50;;;;;;;;;;5075541;28;20254;-61
2021/10/05 00:44:41;;;;;;;6.80;5.60;;;;;;;;;;5075308;28;20315;-60
2021/10/05 00:47:12;;;;;;;6.90;6.23;;;;;;;;;;5075552;28;20292;-61
2021/10/05 00:49:39;;;;;;;5.30;4.77;;;;;;;;;;5075015;28;20299;-62
2021/10/05 00:52:06;;;;;;;7.07;6.00;;;;;;;;;;5075455;28;20549;-61
2021/10/05 00:54:33;;;;;;;8.00;5.53;;;;;;;;;;5073730;28;20470;-61
2021/10/05 00:56:58;;;;;;;7.40;5.17;;;;;;;;;;5075448;28;20788;-61
2021/10/05 00:59:24;;;;;;;6.10;5.50;;;;;;;;;;5074913;28;20465;-60
2021/10/05 01:01:49;;;;;;;5.50;5.00;;;;;;;;;;5075075;28;20236;-61
2021/10/05 01:04:14;;;;;;;10.87;5.87;;;;;;;;;;5075033;28;20276;-62
2021/10/05 01:06:57;;;;;;;7.90;5.20;;;;;;;;;;5073534;28;20520;-61
2021/10/05 01:09:22;;;;;;;6.83;5.10;;;;;;;;;;5074333;28;20213;-61
2021/10/05 01:11:48;;;;;;;5.50;4.60;;;;;;;;;;5074700;28;20557;-61
2021/10/05 01:14:13;;;;;;;5.97;4.73;;;;;;;;;;5074926;28;20216;-61
2021/10/05 01:16:39;;;;;;;6.80;5.13;;;;;;;;;;5074621;28;20275;-61
2021/10/05 01:19:06;;;;;;;5.20;4.70;;;;;;;;;;5074804;28;20231;-60
2021/10/05 01:21:31;;;;;;;5.83;4.10;;;;;;;;;;5074213;28;20266;-60
2021/10/05 01:24:10;;;;;;;5.40;4.90;;;;;;;;;;5074724;28;20471;-60
2021/10/05 01:26:36;;;;;;;6.93;4.50;;;;;;;;;;5074216;28;20358;-60
2021/10/05 01:29:04;;;;;;;5.00;4.47;;;;;;;;;;5074676;28;20542;-61
2021/10/05 01:31:30;;;;;;;7.03;3.87;;;;;;;;;;5074036;28;20216;-60
2021/10/05 01:33:56;;;;;;;6.40;4.00;;;;;;;;;;5074569;28;20799;-60
2021/10/05 01:36:21;;;;;;;7.03;5.13;;;;;;;;;;5074239;28;20451;-61
2021/10/05 01:38:47;;;;;;;5.43;4.30;;;;;;;;;;5074441;28;20544;-60
2021/10/05 01:41:13;;;;;;;4.90;3.87;;;;;;;;;;5074259;28;20232;-60
2021/10/05 01:43:38;;;;;;;4.77;3.50;;;;;;;;;;5073988;28;20303;-60
2021/10/05 01:46:04;;;;;;;4.73;4.00;;;;;;;;;;5074357;28;20474;-60
2021/10/05 01:48:29;;;;;;;4.07;3.63;;;;;;;;;;5073731;28;20303;-61
2021/10/05 01:50:54;;;;;;;5.50;4.87;;;;;;;;;;5074130;28;20224;-61
2021/10/05 01:53:19;;;;;;;5.47;2.90;;;;;;;;;;5074377;28;20565;-60
2021/10/05 01:55:45;;;;;;;4.13;3.63;;;;;;;;;;5074024;28;20244;-60
2021/10/05 01:58:10;;;;;;;7.30;3.40;;;;;;;;;;5074231;28;20224;-61
2021/10/05 02:00:35;;;;;;;6.40;3.13;;;;;;;;;;5073615;28;20246;-61
2021/10/05 02:03:01;;;;;;;4.60;3.40;;;;;;;;;;5074027;28;20303;-61
2021/10/05 02:05:26;;;;;;;5.33;3.33;;;;;;;;;;5072675;28;20771;-60
2021/10/05 02:07:51;;;;;;;6.50;3.07;;;;;;;;;;5073691;28;20239;-60
2021/10/05 02:10:16;;;;;;;6.17;3.37;;;;;;;;;;5073784;28;20648;-60
2021/10/05 02:12:42;;;;;;;4.90;3.83;;;;;;;;;;5073902;28;20300;-61
2021/10/05 02:15:07;;;;;;;3.80;3.37;;;;;;;;;;5073967;28;20216;-60
2021/10/05 02:17:33;;;;;;;5.13;3.00;;;;;;;;;;5073601;28;20227;-61
2021/10/05 02:19:58;;;;;;;5.43;3.20;;;;;;;;;;5073997;28;20240;-60
2021/10/05 02:22:23;;;;;;;7.30;3.50;;;;;;;;;;5073858;28;20299;-60
2021/10/05 02:24:49;;;;;;;6.93;3.17;;;;;;;;;;5073500;28;20662;-61
2021/10/05 02:27:18;;;;;;;7.33;3.03;;;;;;;;;;5073704;28;20220;-60
2021/10/05 02:29:44;;;;;;;6.60;3.80;;;;;;;;;;5073378;28;20277;-61
2021/10/05 02:32:11;;;;;;;7.40;3.77;;;;;;;;;;5073863;28;20450;-61
2021/10/05 02:34:37;;;;;;;4.63;3.03;;;;;;;;;;5073307;28;20461;-62
2021/10/05 02:37:03;;;;;;;4.17;2.70;;;;;;;;;;5073820;28;20487;-61
2021/10/05 02:39:29;;;;;;;5.70;3.10;;;;;;;;;;5073171;28;20950;-60
2021/10/05 02:41:54;;;;;;;3.90;2.80;;;;;;;;;;5073681;28;20508;-60
2021/10/05 02:44:20;;;;;;;6.33;2.57;;;;;;;;;;5073632;28;20254;-61
2021/10/05 02:46:46;;;;;;;6.20;3.03;;;;;;;;;;5072180;28;20224;-60
2021/10/05 02:49:12;;;;;;;5.27;2.60;;;;;;;;;;5073503;28;20205;-60
2021/10/05 02:51:37;;;;;;;4.53;2.70;;;;;;;;;;5073112;28;20470;-60
2021/10/05 02:54:03;;;;;;;4.00;2.73;;;;;;;;;;5072925;28;20215;-61
2021/10/05 02:56:28;;;;;;;3.73;2.40;;;;;;;;;;5072079;28;20220;-61
2021/10/05 02:58:53;;;;;;;4.43;2.00;;;;;;;;;;5073812;28;20251;-61
2021/10/05 03:01:19;;;;;;;5.97;2.73;;;;;;;;;;5073331;28;20216;-60
2021/10/05 03:03:44;;;;;;;5.47;2.10;;;;;;;;;;5073193;28;20644;-60
2021/10/05 03:06:10;;;;;;;5.30;2.33;;;;;;;;;;5073449;28;20216;-61
2021/10/05 03:08:36;;;;;;;5.30;2.63;;;;;;;;;;5073268;28;20212;-61
2021/10/05 03:11:01;;;;;;;5.70;2.70;;;;;;;;;;5062513;28;20221;-61
2021/10/05 03:13:32;;;;;;;5.63;2.83;;;;;;;;;;5068906;28;20497;-62
2021/10/05 03:15:57;;;;;;;5.50;2.80;;;;;;;;;;5068540;28;20215;-60
2021/10/05 03:18:23;;;;;;;3.70;2.67;;;;;;;;;;5071360;28;20448;-62
2021/10/05 03:20:49;;;;;;;6.90;2.90;;;;;;;;;;5075820;28;20672;-61
2021/10/05 03:23:14;;;;;;;4.63;2.90;;;;;;;;;;5077312;28;20209;-60
2021/10/05 03:25:39;;;;;;;6.90;3.13;;;;;;;;;;5076666;28;20655;-60
2021/10/05 03:28:04;;;;;;;4.03;2.40;;;;;;;;;;5072519;28;20303;-61
2021/10/05 03:30:30;;;;;;;5.77;2.40;;;;;;;;;;5074338;28;20228;-61
2021/10/05 03:32:55;;;;;;;4.30;2.27;;;;;;;;;;5054828;28;20224;-63
2021/10/05 03:35:20;;;;;;;4.43;2.73;;;;;;;;;;5060534;28;20225;-62
2021/10/05 03:37:46;;;;;;;3.80;2.33;;;;;;;;;;5069746;28;20251;-62
2021/10/05 03:40:11;;;;;;;5.60;2.57;;;;;;;;;;5066213;28;20609;-62
2021/10/05 03:42:36;;;;;;;2.20;2.00;;;;;;;;;;5062715;28;20237;-61
2021/10/05 03:45:02;;;;;;;5.27;2.43;;;;;;;;;;5065692;28;20240;-62
2021/10/05 03:47:27;;;;;;;5.87;2.80;;;;;;;;;;5069490;28;20232;-61
2021/10/05 03:49:52;;;;;;;3.30;2.00;;;;;;;;;;5065724;28;20235;-61
2021/10/05 03:52:17;;;;;;;3.47;2.50;;;;;;;;;;5062905;28;20725;-62
2021/10/05 03:54:43;;;;;;;5.40;2.00;;;;;;;;;;5066712;28;20305;-63
2021/10/05 03:57:09;;;;;;;6.13;2.17;;;;;;;;;;5069606;28;20648;-61
2021/10/05 03:59:34;;;;;;;9.20;5.60;;;;;;;;;;5065910;28;20278;-60
2021/10/05 04:01:59;;;;;;;11.47;4.27;;;;;;;;;;5062447;28;20272;-62
2021/10/05 04:04:25;;;;;;;7.67;4.67;;;;;;;;;;5067417;28;20687;-61
2021/10/05 04:06:50;;;;;;;4.70;3.20;;;;;;;;;;5068891;28;20315;-61
2021/10/05 04:09:15;;;;;;;13.40;8.00;;;;;;;;;;5065050;28;20231;-62
2021/10/05 04:11:41;;;;;;;11.40;7.77;;;;;;;;;;5061969;28;20664;-61
2021/10/05 04:14:06;;;;;;;7.40;6.00;;;;;;;;;;5067293;28;20247;-62
2021/10/05 04:16:31;;;;;;;4.97;3.40;;;;;;;;;;5069270;28;20208;-62
2021/10/05 04:18:56;;;;;;;5.03;3.20;;;;;;;;;;5057390;28;20244;-62
2021/10/05 04:21:22;;;;;;;7.63;4.70;;;;;;;;;;5053883;28;20236;-61
2021/10/05 04:23:47;;;;;;;13.30;10.50;;;;;;;;;;5045113;28;20846;-61
2021/10/05 04:26:12;;;;;;;8.37;5.60;;;;;;;;;;5060022;28;20223;-61
2021/10/05 04:28:38;;;;;;;7.67;4.80;;;;;;;;;;5065451;28;20226;-62
2021/10/05 04:31:04;;;;;;;6.13;3.67;;;;;;;;;;5068158;28;20229;-61
2021/10/05 04:33:29;;;;;;;7.93;6.20;;;;;;;;;;5065636;28;20226;-62
2021/10/05 04:35:55;;;;;;;8.33;5.77;;;;;;;;;;5061790;28;20459;-61
2021/10/05 04:38:20;;;;;;;11.00;3.13;;;;;;;;;;5065550;28;20210;-61
2021/10/05 04:40:45;;;;;;;6.47;4.20;;;;;;;;;;5068280;28;20252;-61
2021/10/05 04:43:11;;;;;;;4.00;3.20;;;;;;;;;;5064882;28;20215;-61
2021/10/05 04:45:36;;;;;;;7.20;3.00;;;;;;;;;;5061790;28;20213;-61
2021/10/05 04:48:08;;;;;;;10.30;7.40;;;;;;;;;;5065789;28;20610;-61
2021/10/05 04:50:34;;;;;;;4.53;3.10;;;;;;;;;;5068343;28;20245;-62
2021/10/05 04:53:00;;;;;;;11.03;9.07;;;;;;;;;;5064983;28;20458;-61
2021/10/05 04:55:25;;;;;;;8.80;5.20;;;;;;;;;;5061501;28;20459;-61
2021/10/05 04:57:50;;;;;;;7.70;5.73;;;;;;;;;;5065009;28;20645;-61
2021/10/05 05:00:16;;;;;;;5.43;3.83;;;;;;;;;;5068396;28;20217;-62
2021/10/05 05:02:41;;;;;;;5.43;3.10;;;;;;;;;;5063801;28;20295;-61
2021/10/05 05:05:07;;;;;;;5.73;3.37;;;;;;;;;;5061683;28;20224;-62
2021/10/05 05:07:33;;;;;;;7.40;4.33;;;;;;;;;;5065650;28;20225;-60
2021/10/05 05:09:59;;;;;;;4.93;3.00;;;;;;;;;;5067661;28;20311;-61
2021/10/05 05:12:24;;;;;;;3.87;2.87;;;;;;;;;;5063715;28;20554;-61
2021/10/05 05:14:49;;;;;;;6.10;4.90;;;;;;;;;;5061057;28;20217;-61
2021/10/05 05:17:14;;;;;;;7.70;3.73;;;;;;;;;;5066237;28;20228;-61
2021/10/05 05:19:40;;;;;;;5.83;3.20;;;;;;;;;;5058799;28;20296;-61
2021/10/05 05:22:05;;;;;;;3.80;2.90;;;;;;;;;;5065111;28;20223;-62
2021/10/05 05:24:30;;;;;;;6.43;4.30;;;;;;;;;;5064369;28;20233;-61
2021/10/05 05:26:55;;;;;;;5.93;5.07;;;;;;;;;;5067617;28;20335;-62
2021/10/05 05:29:21;;;;;;;10.03;6.10;;;;;;;;;;5059020;28;20213;-62
2021/10/05 05:31:48;;;;;;;4.20;3.70;;;;;;;;;;5067129;28;20258;-62
2021/10/05 05:34:14;;;;;;;6.43;3.77;;;;;;;;;;5064850;28;20219;-61
2021/10/05 05:36:39;;;;;;;7.27;5.23;;;;;;;;;;5060972;28;20451;-61
2021/10/05 05:39:05;;;;;;;6.00;4.07;;;;;;;;;;5063631;28;20641;-61
2021/10/05 05:41:30;;;;;;;4.17;3.17;;;;;;;;;;5066518;28;20291;-61
2021/10/05 05:43:55;;;;;;;6.67;3.83;;;;;;;;;;5064592;28;20220;-61
2021/10/05 05:46:21;;;;;;;10.30;6.90;;;;;;;;;;5060788;28;20216;-62
2021/10/05 05:48:46;;;;;;;8.63;5.03;;;;;;;;;;5063369;28;20237;-62
2021/10/05 05:51:11;;;;;;;5.30;4.07;;;;;;;;;;5067451;28;20255;-61
2021/10/05 05:53:36;;;;;;;5.97;3.23;;;;;;;;;;5064115;28;20299;-61
2021/10/05 05:56:02;;;;;;;7.60;4.00;;;;;;;;;;5059986;28;20254;-61
2021/10/05 05:58:28;;;;;;;9.03;4.27;;;;;;;;;;5064504;28;20224;-61
2021/10/05 06:00:54;;;;;;;5.50;3.50;;;;;;;;;;5067069;28;20525;-61
2021/10/05 06:03:19;;;;;;;4.80;4.00;;;;;;;;;;5064179;28;20217;-61
2021/10/05 06:05:46;;;;;;;4.93;3.53;;;;;;;;;;5058837;28;20233;-62
2021/10/05 06:08:11;;;;;;;4.37;3.00;;;;;;;;;;5064144;28;20232;-62
2021/10/05 06:10:37;;;;;;;7.67;4.07;;;;;;;;;;5066855;28;20464;-62
2021/10/05 06:13:02;;;;;;;6.00;3.67;;;;;;;;;;5063093;28;20220;-61
2021/10/05 06:15:27;;;;;;;6.70;3.70;;;;;;;;;;5060376;28;20299;-61
2021/10/05 06:17:53;;;;;;;3.80;3.40;;;;;;;;;;5063635;28;20244;-61
2021/10/05 06:20:21;;;;;;;5.23;3.27;;;;;;;;;;5057334;28;20247;-61
2021/10/05 06:22:46;;;;;;;4.80;3.10;;;;;;;;;;5060206;28;20224;-61
2021/10/05 06:25:20;;;;;;;6.93;4.57;;;;;;;;;;5063654;28;20802;-61
2021/10/05 06:27:46;;;;;;;5.00;3.90;;;;;;;;;;5066770;28;20263;-60
2021/10/05 06:30:13;;;;;;;5.30;4.80;;;;;;;;;;5064227;28;20658;-62
2021/10/05 06:32:39;;;;;;;4.40;4.00;;;;;;;;;;5060029;28;20231;-61
2021/10/05 06:35:06;;;;;;;7.07;4.00;;;;;;;;;;5061974;28;20849;-60
2021/10/05 06:37:31;;;;;;;4.87;3.90;;;;;;;;;;5067302;28;20464;-61
2021/10/05 06:39:57;;;;;;;5.13;3.60;;;;;;;;;;5063763;28;20603;-61
2021/10/05 06:42:22;;;;;;;6.30;4.17;;;;;;;;;;5059741;28;20220;-61
2021/10/05 06:44:47;;;;;;;5.97;4.77;;;;;;;;;;5062782;28;20302;-60
2021/10/05 06:47:12;;;;;;;7.27;3.60;;;;;;;;;;5066845;28;20237;-61
2021/10/05 06:49:38;;;;;;;5.47;3.93;;;;;;;;;;5063122;28;20224;-61
2021/10/05 06:52:07;;;;;;;5.73;3.80;;;;;;;;;;5059655;28;20299;-61
2021/10/05 06:54:33;;;;;;;7.90;4.00;;;;;;;;;;5066875;28;20221;-61
2021/10/05 06:56:58;;;;;;;4.20;3.70;;;;;;;;;;5070519;28;20959;-61
2021/10/05 06:59:24;;;;;;;7.83;4.13;;;;;;;;;;5067534;28;20216;-61
2021/10/05 07:01:49;;;;;;;5.33;3.90;;;;;;;;;;5063420;28;20683;-61
2021/10/05 07:04:15;;;;;;;8.43;4.50;;;;;;;;;;5067242;28;20675;-61
2021/10/05 07:06:40;;;;;;;10.80;4.60;;;;;;;;;;5070482;28;20232;-62
2021/10/05 07:09:05;;;;;;;7.50;4.30;;;;;;;;;;5066657;28;20240;-61
2021/10/05 07:11:32;;;;;;;6.50;3.93;;;;;;;;;;5063288;28;20664;-61
2021/10/05 07:13:57;;;;;;;6.83;4.97;;;;;;;;;;5066617;28;20236;-61
2021/10/05 07:16:22;;;;;;;7.50;4.83;;;;;;;;;;5070505;28;20455;-61
2021/10/05 07:18:48;;;;;;;5.30;4.80;;;;;;;;;;5061928;28;20216;-61
2021/10/05 07:21:13;;;;;;;7.10;5.20;;;;;;;;;;5060540;28;20665;-61
2021/10/05 07:23:38;;;;;;;7.60;4.93;;;;;;;;;;5067199;28;20220;-62
2021/10/05 07:26:04;;;;;;;6.43;5.80;;;;;;;;;;5062754;28;20221;-62
2021/10/05 07:28:29;;;;;;;8.20;5.13;;;;;;;;;;5067118;28;20267;-61
2021/10/05 07:30:54;;;;;;;5.80;4.97;;;;;;;;;;5069798;28;20241;-62
2021/10/05 07:33:23;;;;;;;7.63;5.70;;;;;;;;;;5066246;28;20232;-61
2021/10/05 07:35:48;;;;;;;7.33;5.30;;;;;;;;;;5063089;28;20568;-61
2021/10/05 07:38:13;;;;;;;7.07;6.37;;;;;;;;;;5066094;28;20463;-60
2021/10/05 07:40:39;;;;;;;5.57;5.00;;;;;;;;;;5069911;28;20294;-61
2021/10/05 07:43:04;;;;;;;10.60;7.00;;;;;;;;;;5065720;28;20221;-61
2021/10/05 07:45:31;;;;;;;8.43;5.73;;;;;;;;;;5063139;28;20633;-60
2021/10/05 07:47:56;;;;;;;7.30;5.80;;;;;;;;;;5066775;28;20268;-61
2021/10/05 07:50:22;;;;;;;8.90;7.20;;;;;;;;;;5069606;28;20969;-61
2021/10/05 07:52:47;;;;;;;8.63;6.47;;;;;;;;;;5065392;28;20228;-61
2021/10/05 07:55:13;;;;;;;7.67;6.53;;;;;;;;;;5062286;28;20462;-60
2021/10/05 07:57:38;;;;;;;6.63;6.03;;;;;;;;;;5067629;28;20245;-61
2021/10/05 08:00:05;;;;;;;7.27;6.57;;;;;;;;;;5069225;28;20225;-61
2021/10/05 08:02:30;;;;;;;7.97;7.27;;;;;;;;;;5064978;28;20307;-60
2021/10/05 08:04:56;;;;;;;10.53;7.90;;;;;;;;;;5061104;28;20541;-61
2021/10/05 08:07:26;;;;;;;8.67;7.80;;;;;;;;;;5067320;28;20229;-61
2021/10/05 08:09:51;;;;;;;9.20;7.30;;;;;;;;;;5068729;28;20240;-61
2021/10/05 08:12:16;;;;;;;10.83;7.57;;;;;;;;;;5064898;28;20774;-61
2021/10/05 08:14:42;;;;;;;9.13;8.23;;;;;;;;;;5061572;28;20312;-61
2021/10/05 08:17:07;;;;;;;10.50;8.40;;;;;;;;;;5067058;28;20228;-60
2021/10/05 08:19:32;;;;;;;9.23;8.10;;;;;;;;;;5061468;28;20259;-61
2021/10/05 08:21:57;;;;;;;9.20;8.40;;;;;;;;;;5065395;28;20248;-61
2021/10/05 08:24:23;;;;;;;9.80;8.87;;;;;;;;;;5069504;28;20217;-61
2021/10/05 08:26:48;;;;;;;10.23;9.30;;;;;;;;;;5065210;28;20296;-62
2021/10/05 08:29:13;;;;;;;11.47;9.70;;;;;;;;;;5061602;28;20221;-61
2021/10/05 08:31:39;;;;;;;12.33;9.50;;;;;;;;;;5065344;28;20304;-61
2021/10/05 08:34:04;;;;;;;10.17;9.10;;;;;;;;;;5068349;28;20236;-61
2021/10/05 08:36:29;;;;;;;12.47;8.77;;;;;;;;;;5064386;28;20298;-61
2021/10/05 08:38:55;;;;;;;10.67;9.63;;;;;;;;;;5061483;28;20551;-61
2021/10/05 08:41:21;;;;;;;11.57;9.83;;;;;;;;;;5066860;28;20570;-61
2021/10/05 08:43:46;;;;;;;12.30;11.30;;;;;;;;;;5068763;28;20239;-61
2021/10/05 08:46:11;;;;;;;12.70;11.37;;;;;;;;;;5063598;28;20458;-61
2021/10/05 08:48:38;;;;;;;14.80;12.90;;;;;;;;;;5061477;28;20263;-61
2021/10/05 08:51:05;;;;;;;13.93;12.20;;;;;;;;;;5066473;28;20236;-61
2021/10/05 08:53:33;;;;;;;14.10;12.70;;;;;;;;;;5068913;28;20910;-61
2021/10/05 08:55:59;;;;;;;13.77;12.40;;;;;;;;;;5062939;28;20849;-61
2021/10/05 08:58:24;;;;;;;14.53;13.10;;;;;;;;;;5061790;28;20467;-61
2021/10/05 09:00:52;;;;;;;13.87;12.53;;;;;;;;;;5065926;28;20241;-61
2021/10/05 09:03:24;;;;;;;13.10;11.90;;;;;;;;;;5068037;28;20255;-60
2021/10/05 09:05:50;;;;;;;15.07;13.67;;;;;;;;;;5064121;28;20506;-61
2021/10/05 09:08:23;;;;;;;15.80;14.20;;;;;;;;;;5061059;28;20467;-60
2021/10/05 09:10:52;;;;;;;14.77;13.27;;;;;;;;;;5064583;28;20496;-60
2021/10/05 09:13:29;;;;;;;14.57;13.20;;;;;;;;;;5067679;28;20518;-61
2021/10/05 09:15:54;;;;;;;16.10;14.00;;;;;;;;;;5066940;28;20505;-61
2021/10/05 09:18:19;;;;;;;15.93;14.23;;;;;;;;;;5056207;28;20535;-61
2021/10/05 09:20:45;;;;;;;17.50;14.10;;;;;;;;;;5062661;28;20229;-61
2021/10/05 09:23:14;;;;;;;14.63;13.30;;;;;;;;;;5060511;28;20650;-61
2021/10/05 09:25:42;;;;;;;16.67;14.63;;;;;;;;;;5060920;28;20213;-61
2021/10/05 09:28:23;;;;;;;16.43;14.83;;;;;;;;;;5066981;28;20554;-61
2021/10/05 09:30:57;;;;;;;16.67;14.90;;;;;;;;;;5050185;28;20785;-61
2021/10/05 09:33:22;;;;;;;16.47;14.87;;;;;;;;;;5064226;28;20461;-62
2021/10/05 09:35:48;;;;;;;17.67;15.90;;;;;;;;;;5060840;28;20459;-62
2021/10/05 09:38:15;;;;;;;18.47;16.37;;;;;;;;;;5064193;28;20220;-60
2021/10/05 09:40:41;;;;;;;17.13;15.43;;;;;;;;;;5067361;28;20271;-61
2021/10/05 09:43:18;;;;;;;16.93;15.20;;;;;;;;;;5064185;28;20694;-61
2021/10/05 09:45:44;;;;;;;19.60;17.53;;;;;;;;;;5060973;28;20470;-60
2021/10/05 09:48:09;;;;;;;17.10;15.20;;;;;;;;;;5062119;28;20529;-61
2021/10/05 09:50:35;;;;;;;18.27;16.53;;;;;;;;;;5068287;28;20312;-62
2021/10/05 09:53:06;;;;;;;18.27;16.40;;;;;;;;;;5064536;28;20217;-62
2021/10/05 09:55:45;;;;;;;17.87;16.17;;;;;;;;;;5060652;28;20846;-60
2021/10/05 09:58:11;;;;;;;18.10;16.20;;;;;;;;;;5060458;28;20459;-61
2021/10/05 10:00:40;;;;;;;16.97;15.47;;;;;;;;;;5047096;28;20471;-61
2021/10/05 10:03:06;;;;;;;18.20;16.60;;;;;;;;;;5060210;28;20463;-61
2021/10/05 10:05:32;;;;;;;18.53;16.77;;;;;;;;;;5066841;28;20836;-61
2021/10/05 10:07:58;;;;;;;17.73;15.20;;;;;;;;;;5067084;28;20481;-61
2021/10/05 10:10:25;;;;;;;20.20;18.40;;;;;;;;;;5059973;28;20455;-61
2021/10/05 10:12:55;;;;;;;20.60;18.70;;;;;;;;;;5060489;28;20256;-61
2021/10/05 10:15:25;;;;;;;20.53;18.63;;;;;;;;;;5065889;28;20451;-61
2021/10/05 10:17:50;;;;;;;20.40;18.60;;;;;;;;;;5066046;28;20481;-61
2021/10/05 10:20:35;;;;;;;21.63;19.53;;;;;;;;;;5061980;28;20464;-61
2021/10/05 10:23:00;;;;;;;21.97;19.87;;;;;;;;;;5058531;28;20248;-61
2021/10/05 10:25:28;;;;;;;20.93;18.83;;;;;;;;;;5061105;28;20974;-62
2021/10/05 10:27:57;;;;;;;21.67;19.50;;;;;;;;;;5066078;28;20225;-61
2021/10/05 10:30:28;;;;;;;19.47;17.57;;;;;;;;;;5065174;28;20466;-62
2021/10/05 10:33:00;;;;;;;24.37;21.77;;;;;;;;;;5059739;28;20474;-61
2021/10/05 10:35:26;;;;;;;21.70;19.70;;;;;;;;;;5059574;28;20463;-61
2021/10/05 10:37:52;;;;;;;22.47;20.27;;;;;;;;;;5066788;28;20792;-62
2021/10/05 10:40:20;;;;;;;21.40;19.30;;;;;;;;;;5066279;28;20781;-62
2021/10/05 10:42:45;;;;;;;20.90;18.77;;;;;;;;;;5059851;28;20463;-62
2021/10/05 10:45:18;;;;;;;21.50;19.50;;;;;;;;;;5059756;28;20529;-61
2021/10/05 10:47:46;;;;;;;23.77;21.23;;;;;;;;;;5065297;28;20260;-61
2021/10/05 10:50:14;;;;;;;22.43;20.37;;;;;;;;;;5065431;28;20779;-61
2021/10/05 10:52:45;;;;;;;22.37;20.10;;;;;;;;;;5061601;28;20541;-61
2021/10/05 10:55:17;;;;;;;23.73;21.33;;;;;;;;;;5059423;28;20998;-61
2021/10/05 10:57:56;;;;;;;21.93;19.87;;;;;;;;;;5063805;28;20464;-61
2021/10/05 11:00:23;;;;;;;23.63;21.53;;;;;;;;;;5065735;28;20478;-61
2021/10/05 11:02:51;;;;;;;22.67;20.37;;;;;;;;;;5064569;28;20556;-61
2021/10/05 11:05:21;;;;;;;24.10;21.93;;;;;;;;;;5059187;28;20530;-61
2021/10/05 11:07:46;;;;;;;24.90;22.30;;;;;;;;;;5061261;28;20507;-61
2021/10/05 11:10:12;;;;;;;25.20;22.60;;;;;;;;;;5065028;28;20551;-62
2021/10/05 11:12:47;;;;;;;28.63;25.67;;;;;;;;;;5064987;28;20233;-60
2021/10/05 11:15:13;;;;;;;26.77;24.17;;;;;;;;;;5059642;28;20683;-61
2021/10/05 11:17:39;;;;;;;29.03;25.00;;;;;;;;;;5060182;28;20467;-61
2021/10/05 11:20:07;;;;;;;26.27;23.67;;;;;;;;;;5044056;28;20688;-62
2021/10/05 11:22:33;;;;;;;28.37;25.47;;;;;;;;;;5054293;28;20467;-61
2021/10/05 11:24:58;;;;;;;27.07;24.37;;;;;;;;;;5064979;28;20526;-61
2021/10/05 11:27:24;;;;;;;30.10;23.70;;;;;;;;;;5065756;28;20510;-62
2021/10/05 11:29:51;;;;;;;27.17;24.53;;;;;;;;;;5060456;28;20308;-62
2021/10/05 11:32:18;;;;;;;27.00;24.50;;;;;;;;;;5058944;28;20539;-61
2021/10/05 11:34:45;;;;;;;27.27;24.60;;;;;;;;;;5065343;28;20510;-61
2021/10/05 11:37:13;;;;;;;27.40;24.77;;;;;;;;;;5065872;28;20771;-61
2021/10/05 11:39:40;;;;;;;26.97;24.53;;;;;;;;;;5063035;28;20751;-61
2021/10/05 11:42:10;;;;;;;25.53;22.90;;;;;;;;;;5062599;28;20467;-61
2021/10/05 11:44:49;;;;;;;26.50;23.70;;;;;;;;;;5067545;28;20771;-62
2021/10/05 11:47:16;;;;;;;26.50;23.43;;;;;;;;;;5069026;28;20479;-60
2021/10/05 11:49:44;;;;;;;24.60;22.20;;;;;;;;;;5067452;28;20488;-61
2021/10/05 11:52:16;;;;;;;26.43;23.77;;;;;;;;;;5062557;28;20474;-62
2021/10/05 11:54:41;;;;;;;26.07;23.37;;;;;;;;;;5064234;28;20463;-62
2021/10/05 11:57:15;;;;;;;27.90;25.20;;;;;;;;;;5069245;28;21038;-61
2021/10/05 11:59:41;;;;;;;27.53;24.57;;;;;;;;;;5069167;28;20266;-62
2021/10/05 12:02:11;;;;;;;25.43;22.73;;;;;;;;;;5062953;28;20467;-61
2021/10/05 12:04:39;;;;;;;25.67;23.07;;;;;;;;;;5061321;28;20217;-61
2021/10/05 12:07:07;;;;;;;23.83;21.53;;;;;;;;;;5049595;28;20588;-62
2021/10/05 12:09:32;;;;;;;25.80;23.40;;;;;;;;;;5061870;28;20479;-61
2021/10/05 12:12:06;;;;;;;26.90;24.30;;;;;;;;;;5069053;28;20568;-62
2021/10/05 12:14:44;;;;;;;25.43;22.97;;;;;;;;;;5068993;28;20224;-62
2021/10/05 12:17:12;;;;;;;27.83;25.13;;;;;;;;;;5065133;28;20454;-61
2021/10/05 12:19:43;;;;;;;28.63;25.90;;;;;;;;;;5067846;28;20464;-62
2021/10/05 12:22:09;;;;;;;26.70;24.10;;;;;;;;;;5055907;28;20466;-61
2021/10/05 12:24:42;;;;;;;27.17;24.63;;;;;;;;;;5068969;28;20761;-62
2021/10/05 12:27:09;;;;;;;27.80;24.97;;;;;;;;;;5067999;28;20479;-62
2021/10/05 12:29:48;;;;;;;28.80;25.90;;;;;;;;;;5060282;28;20455;-62
2021/10/05 12:32:13;;;;;;;29.83;26.67;;;;;;;;;;5051396;28;20936;-61
2021/10/05 12:34:40;;;;;;;29.60;25.20;;;;;;;;;;5052314;28;21365;-60
2021/10/05 12:37:07;;;;;;;27.90;25.00;;;;;;;;;;5066176;28;20286;-61
2021/10/05 12:39:33;;;;;;;28.00;25.10;;;;;;;;;;5061149;28;20460;-61
2021/10/05 12:42:00;;;;;;;30.57;26.10;;;;;;;;;;5066448;28;20490;-61
2021/10/05 12:44:26;;;;;;;31.37;28.20;;;;;;;;;;5068516;28;20546;-61
2021/10/05 12:46:59;;;;;;;28.07;25.27;;;;;;;;;;5064002;28;20475;-62
2021/10/05 12:49:25;;;;;;;32.27;26.00;;;;;;;;;;5061407;28;20282;-62
2021/10/05 12:51:52;;;;;;;29.37;26.00;;;;;;;;;;5065118;28;20468;-61
2021/10/05 12:54:17;;;;;;;31.90;27.90;;;;;;;;;;5068144;28;20656;-61
2021/10/05 12:56:45;;;;;;;30.20;27.07;;;;;;;;;;5064753;28;20533;-60
2021/10/05 12:59:10;;;;;;;30.37;27.17;;;;;;;;;;5061733;28;20578;-61
2021/10/05 13:01:37;;;;;;;32.63;29.10;;;;;;;;;;5064793;28;20467;-61
2021/10/05 13:04:06;;;;;;;31.80;26.00;;;;;;;;;;5068052;28;20540;-61
2021/10/05 13:06:32;;;;;;;31.03;27.77;;;;;;;;;;5064748;28;20463;-60
2021/10/05 13:09:03;;;;;;;29.63;26.43;;;;;;;;;;5061303;28;20991;-61
2021/10/05 13:11:28;;;;;;;26.50;23.73;;;;;;;;;;5063289;28;20801;-62
2021/10/05 13:13:54;;;;;;;25.37;22.77;;;;;;;;;;5067925;28;20456;-61
2021/10/05 13:16:19;;;;;;;31.20;25.63;;;;;;;;;;5053758;28;20217;-61
2021/10/05 13:18:44;;;;;;;24.67;22.00;;;;;;;;;;5056918;28;20258;-61
2021/10/05 13:21:10;;;;;;;24.50;21.77;;;;;;;;;;5073072;28;20250;-61
2021/10/05 13:23:35;;;;;;;25.40;21.00;;;;;;;;;;5072170;28;20827;-61
2021/10/05 13:26:00;;;;;;;26.00;20.87;;;;;;;;;;5072590;28;20295;-62
2021/10/05 13:28:26;;;;;;;23.60;21.03;;;;;;;;;;5071994;28;20603;-61
2021/10/05 13:30:51;;;;;;;22.67;20.33;;;;;;;;;;5072246;28;20224;-61
2021/10/05 13:33:17;;;;;;;24.77;20.07;;;;;;;;;;5072418;28;20243;-61
2021/10/05 13:35:42;;;;;;;23.27;20.27;;;;;;;;;;5072158;28;20633;-61
2021/10/05 13:38:07;;;;;;;22.97;20.47;;;;;;;;;;5074554;28;20476;-61
2021/10/05 13:40:33;;;;;;;22.20;19.73;;;;;;;;;;5073941;28;20308;-61
2021/10/05 13:42:59;;;;;;;22.60;20.10;;;;;;;;;;5074329;28;20303;-61
2021/10/05 13:45:26;;;;;;;24.23;19.00;;;;;;;;;;5073982;28;20299;-61
2021/10/05 13:47:51;;;;;;;24.33;20.50;;;;;;;;;;5074300;28;20465;-60
2021/10/05 13:50:17;;;;;;;21.37;19.00;;;;;;;;;;5074194;28;20463;-61
2021/10/05 13:52:42;;;;;;;19.03;17.03;;;;;;;;;;5073858;28;20212;-60
2021/10/05 13:55:08;;;;;;;21.43;19.17;;;;;;;;;;5074045;28;20660;-61
2021/10/05 13:57:33;;;;;;;16.90;15.20;;;;;;;;;;5072722;28;20220;-61
2021/10/05 13:59:58;;;;;;;18.37;15.70;;;;;;;;;;5073960;28;20304;-61
2021/10/05 14:02:27;;;;;;;18.77;15.93;;;;;;;;;;5072075;28;20217;-61
2021/10/05 14:04:52;;;;;;;17.43;15.40;;;;;;;;;;5074036;28;20528;-62
2021/10/05 14:07:18;;;;;;;16.50;13.43;;;;;;;;;;5073956;28;20478;-61
2021/10/05 14:09:45;;;;;;;14.07;12.70;;;;;;;;;;5073327;28;20216;-61
2021/10/05 14:12:11;;;;;;;15.10;13.63;;;;;;;;;;5073850;28;20548;-62
2021/10/05 14:14:37;;;;;;;14.63;12.40;;;;;;;;;;5072550;28;20470;-61
2021/10/05 14:17:03;;;;;;;11.00;9.90;;;;;;;;;;5074159;28;20455;-61
2021/10/05 14:19:28;;;;;;;11.40;10.20;;;;;;;;;;5068804;28;20563;-61
2021/10/05 14:21:53;;;;;;;13.90;11.63;;;;;;;;;;5073854;28;20632;-61
2021/10/05 14:24:19;;;;;;;9.13;8.20;;;;;;;;;;5073678;28;20246;-61
2021/10/05 14:26:44;;;;;;;10.17;8.13;;;;;;;;;;5073221;28;20212;-60